sensor_id;sensor_type;location;lat;lon;timestamp;pressure;altitude;pressure_sealevel;temperature;humidity
56292;BME280;54008;53.606;9.462;2022-11-12T00:00:25;103320.16;;;8.55;100.00
56292;BME280;54008;53.606;9.462;2022-11-12T00:02:50;103329.72;;;8.50;100.00
56292;BME280;54008;53.606;9.462;2022-11-12T00:05:15;103320.81;;;8.48;100.00
56292;BME280;54008;53.606;9.462;2022-11-12T00:07:40;103316.34;;;8.47;100.00
56292;BME280;54008;53.606;9.462;2022-11-12T00:10:06;103316.75;;;8.53;100.00
56292;BME280;54008;53.606;9.462;2022-11-12T00:12:31;103321.38;;;8.52;100.00
56292;BME280;54008;53.606;9.462;2022-11-12T00:14:57;103317.16;;;8.40;100.00
56292;BME280;54008;53.606;9.462;2022-11-12T00:17:22;103316.00;;;8.42;100.00
56292;BME280;54008;53.606;9.462;2022-11-12T00:19:47;103325.22;;;8.41;100.00
56292;BME280;54008;53.606;9.462;2022-11-12T00:22:13;103323.16;;;8.43;100.00
56292;BME280;54008;53.606;9.462;2022-11-12T00:24:38;103316.59;;;8.36;100.00
56292;BME280;54008;53.606;9.462;2022-11-12T00:27:03;103316.59;;;8.36;100.00
56292;BME280;54008;53.606;9.462;2022-11-12T00:29:29;103313.75;;;8.38;100.00
56292;BME280;54008;53.606;9.462;2022-11-12T00:31:56;103319.50;;;8.35;100.00
56292;BME280;54008;53.606;9.462;2022-11-12T00:34:22;103312.56;;;8.40;100.00
56292;BME280;54008;53.606;9.462;2022-11-12T00:36:47;103317.56;;;8.27;100.00
56292;BME280;54008;53.606;9.462;2022-11-12T00:39:13;103324.38;;;8.23;100.00
56292;BME280;54008;53.606;9.462;2022-11-12T00:41:38;103317.91;;;8.24;100.00
56292;BME280;54008;53.606;9.462;2022-11-12T00:44:03;103323.22;;;8.25;100.00
56292;BME280;54008;53.606;9.462;2022-11-12T00:46:29;103315.34;;;8.22;100.00
56292;BME280;54008;53.606;9.462;2022-11-12T00:48:54;103326.81;;;8.26;100.00
56292;BME280;54008;53.606;9.462;2022-11-12T00:51:20;103327.13;;;8.23;100.00
56292;BME280;54008;53.606;9.462;2022-11-12T00:53:49;103325.41;;;8.22;100.00
56292;BME280;54008;53.606;9.462;2022-11-12T00:56:14;103331.75;;;8.22;100.00
56292;BME280;54008;53.606;9.462;2022-11-12T00:58:40;103333.94;;;8.19;100.00
56292;BME280;54008;53.606;9.462;2022-11-12T01:01:11;103333.22;;;8.17;100.00
56292;BME280;54008;53.606;9.462;2022-11-12T01:03:38;103333.53;;;8.14;100.00
56292;BME280;54008;53.606;9.462;2022-11-12T01:06:13;103330.34;;;8.18;100.00
56292;BME280;54008;53.606;9.462;2022-11-12T01:08:39;103334.63;;;8.21;100.00
56292;BME280;54008;53.606;9.462;2022-11-12T01:11:10;103335.66;;;8.20;100.00
56292;BME280;54008;53.606;9.462;2022-11-12T01:13:37;103327.44;;;8.20;100.00
56292;BME280;54008;53.606;9.462;2022-11-12T01:16:22;103338.75;;;8.25;100.00
56292;BME280;54008;53.606;9.462;2022-11-12T01:18:52;103333.22;;;8.17;100.00
56292;BME280;54008;53.606;9.462;2022-11-12T01:21:19;103332.38;;;8.16;100.00
56292;BME280;54008;53.606;9.462;2022-11-12T01:23:44;103345.41;;;8.22;100.00
56292;BME280;54008;53.606;9.462;2022-11-12T01:26:15;103336.66;;;8.19;100.00
56292;BME280;54008;53.606;9.462;2022-11-12T01:28:41;103337.84;;;8.16;100.00
56292;BME280;54008;53.606;9.462;2022-11-12T01:31:11;103334.44;;;8.14;100.00
56292;BME280;54008;53.606;9.462;2022-11-12T01:33:36;103344.47;;;8.14;100.00
56292;BME280;54008;53.606;9.462;2022-11-12T01:36:02;103341.38;;;8.09;100.00
56292;BME280;54008;53.606;9.462;2022-11-12T01:38:27;103346.91;;;8.17;100.00
56292;BME280;54008;53.606;9.462;2022-11-12T01:40:53;103364.63;;;8.13;100.00
56292;BME280;54008;53.606;9.462;2022-11-12T01:43:18;103360.88;;;8.14;100.00
56292;BME280;54008;53.606;9.462;2022-11-12T01:45:45;103360.25;;;8.20;100.00
56292;BME280;54008;53.606;9.462;2022-11-12T01:48:43;103359.47;;;8.10;100.00
56292;BME280;54008;53.606;9.462;2022-11-12T01:51:11;103359.19;;;8.13;100.00
56292;BME280;54008;53.606;9.462;2022-11-12T01:53:43;103350.28;;;8.11;100.00
56292;BME280;54008;53.606;9.462;2022-11-12T01:56:10;103347.47;;;8.02;100.00
56292;BME280;54008;53.606;9.462;2022-11-12T01:58:37;103365.97;;;8.09;100.00
56292;BME280;54008;53.606;9.462;2022-11-12T02:01:03;103367.69;;;8.10;100.00
56292;BME280;54008;53.606;9.462;2022-11-12T02:03:29;103346.53;;;8.12;100.00
56292;BME280;54008;53.606;9.462;2022-11-12T02:06:00;103346.06;;;7.98;100.00
56292;BME280;54008;53.606;9.462;2022-11-12T02:08:28;103340.16;;;7.85;100.00
56292;BME280;54008;53.606;9.462;2022-11-12T02:10:57;103335.72;;;7.84;100.00
56292;BME280;54008;53.606;9.462;2022-11-12T02:13:23;103340.88;;;7.69;100.00
56292;BME280;54008;53.606;9.462;2022-11-12T02:16:08;103351.38;;;7.46;100.00
56292;BME280;54008;53.606;9.462;2022-11-12T02:18:34;103335.00;;;7.46;100.00
56292;BME280;54008;53.606;9.462;2022-11-12T02:21:04;103342.34;;;7.46;100.00
56292;BME280;54008;53.606;9.462;2022-11-12T02:23:31;103342.72;;;7.33;100.00
56292;BME280;54008;53.606;9.462;2022-11-12T02:25:59;103334.34;;;7.17;100.00
56292;BME280;54008;53.606;9.462;2022-11-12T02:28:25;103345.59;;;7.14;100.00
56292;BME280;54008;53.606;9.462;2022-11-12T02:30:51;103339.59;;;7.10;100.00
56292;BME280;54008;53.606;9.462;2022-11-12T02:33:16;103326.38;;;7.05;100.00
56292;BME280;54008;53.606;9.462;2022-11-12T02:35:41;103328.44;;;6.94;100.00
56292;BME280;54008;53.606;9.462;2022-11-12T02:38:07;103334.53;;;6.88;100.00
56292;BME280;54008;53.606;9.462;2022-11-12T02:40:33;103351.56;;;6.99;100.00
56292;BME280;54008;53.606;9.462;2022-11-12T02:42:59;103358.22;;;6.87;100.00
56292;BME280;54008;53.606;9.462;2022-11-12T02:45:25;103353.75;;;6.86;100.00
56292;BME280;54008;53.606;9.462;2022-11-12T02:47:50;103357.81;;;6.82;100.00
56292;BME280;54008;53.606;9.462;2022-11-12T02:50:16;103356.69;;;6.75;100.00
56292;BME280;54008;53.606;9.462;2022-11-12T02:52:41;103350.44;;;6.65;100.00
56292;BME280;54008;53.606;9.462;2022-11-12T02:55:08;103340.38;;;6.65;100.00
56292;BME280;54008;53.606;9.462;2022-11-12T02:57:35;103340.41;;;6.55;100.00
56292;BME280;54008;53.606;9.462;2022-11-12T03:00:03;103340.41;;;6.55;100.00
56292;BME280;54008;53.606;9.462;2022-11-12T03:02:28;103354.16;;;6.64;100.00
56292;BME280;54008;53.606;9.462;2022-11-12T03:04:53;103348.69;;;6.64;100.00
56292;BME280;54008;53.606;9.462;2022-11-12T03:07:19;103344.53;;;6.60;100.00
56292;BME280;54008;53.606;9.462;2022-11-12T03:09:44;103351.31;;;6.55;100.00
56292;BME280;54008;53.606;9.462;2022-11-12T03:12:09;103354.44;;;6.61;100.00
56292;BME280;54008;53.606;9.462;2022-11-12T03:14:34;103352.50;;;6.43;100.00
56292;BME280;54008;53.606;9.462;2022-11-12T03:17:00;103368.31;;;6.40;100.00
56292;BME280;54008;53.606;9.462;2022-11-12T03:19:25;103358.81;;;6.34;100.00
56292;BME280;54008;53.606;9.462;2022-11-12T03:21:50;103355.97;;;6.26;100.00
56292;BME280;54008;53.606;9.462;2022-11-12T03:24:15;103355.69;;;6.29;100.00
56292;BME280;54008;53.606;9.462;2022-11-12T03:26:41;103367.16;;;6.32;100.00
56292;BME280;54008;53.606;9.462;2022-11-12T03:29:06;103354.97;;;6.27;100.00
56292;BME280;54008;53.606;9.462;2022-11-12T03:31:31;103360.16;;;6.20;100.00
56292;BME280;54008;53.606;9.462;2022-11-12T03:33:57;103361.03;;;6.21;100.00
56292;BME280;54008;53.606;9.462;2022-11-12T03:36:22;103364.44;;;6.23;100.00
56292;BME280;54008;53.606;9.462;2022-11-12T03:38:47;103364.44;;;6.23;100.00
56292;BME280;54008;53.606;9.462;2022-11-12T03:41:12;103366.03;;;6.16;100.00
56292;BME280;54008;53.606;9.462;2022-11-12T03:43:38;103364.03;;;6.08;100.00
56292;BME280;54008;53.606;9.462;2022-11-12T03:46:03;103369.25;;;6.01;100.00
56292;BME280;54008;53.606;9.462;2022-11-12T03:48:28;103374.81;;;6.00;100.00
56292;BME280;54008;53.606;9.462;2022-11-12T03:50:58;103384.13;;;5.97;100.00
56292;BME280;54008;53.606;9.462;2022-11-12T03:53:23;103373.06;;;6.08;100.00
56292;BME280;54008;53.606;9.462;2022-11-12T03:55:49;103360.03;;;6.02;100.00
56292;BME280;54008;53.606;9.462;2022-11-12T03:58:14;103370.22;;;6.00;100.00
56292;BME280;54008;53.606;9.462;2022-11-12T04:00:39;103367.22;;;6.03;100.00
56292;BME280;54008;53.606;9.462;2022-11-12T04:03:04;103360.34;;;5.99;100.00
56292;BME280;54008;53.606;9.462;2022-11-12T04:05:30;103381.41;;;5.97;100.00
56292;BME280;54008;53.606;9.462;2022-11-12T04:08:19;103376.25;;;5.94;100.00
56292;BME280;54008;53.606;9.462;2022-11-12T04:13:32;103357.00;;;5.86;100.00
56292;BME280;54008;53.606;9.462;2022-11-12T04:16:18;103359.88;;;5.75;100.00
56292;BME280;54008;53.606;9.462;2022-11-12T04:19:04;103379.09;;;5.73;100.00
56292;BME280;54008;53.606;9.462;2022-11-12T04:21:55;103374.78;;;5.80;100.00
56292;BME280;54008;53.606;9.462;2022-11-12T04:24:35;103365.31;;;5.75;100.00
56292;BME280;54008;53.606;9.462;2022-11-12T04:29:49;103366.47;;;5.82;100.00
56292;BME280;54008;53.606;9.462;2022-11-12T04:32:36;103362.59;;;5.55;100.00
56292;BME280;54008;53.606;9.462;2022-11-12T04:35:02;103364.44;;;5.55;100.00
56292;BME280;54008;53.606;9.462;2022-11-12T04:37:30;103376.06;;;5.47;100.00
56292;BME280;54008;53.606;9.462;2022-11-12T04:40:16;103368.91;;;5.46;100.00
56292;BME280;54008;53.606;9.462;2022-11-12T04:43:01;103355.56;;;5.43;100.00
56292;BME280;54008;53.606;9.462;2022-11-12T04:45:47;103372.91;;;5.42;100.00
56292;BME280;54008;53.606;9.462;2022-11-12T04:48:14;103372.31;;;5.39;100.00
56292;BME280;54008;53.606;9.462;2022-11-12T04:50:40;103368.91;;;5.46;100.00
56292;BME280;54008;53.606;9.462;2022-11-12T04:53:05;103354.81;;;5.41;100.00
56292;BME280;54008;53.606;9.462;2022-11-12T04:55:31;103363.41;;;5.37;100.00
56292;BME280;54008;53.606;9.462;2022-11-12T04:57:57;103374.88;;;5.40;100.00
56292;BME280;54008;53.606;9.462;2022-11-12T05:00:22;103366.41;;;5.33;100.00
56292;BME280;54008;53.606;9.462;2022-11-12T05:02:48;103367.69;;;5.29;100.00
56292;BME280;54008;53.606;9.462;2022-11-12T05:05:14;103372.56;;;5.26;100.00
56292;BME280;54008;53.606;9.462;2022-11-12T05:07:39;103369.69;;;5.18;100.00
56292;BME280;54008;53.606;9.462;2022-11-12T05:10:05;103368.13;;;5.25;100.00
56292;BME280;54008;53.606;9.462;2022-11-12T05:12:30;103384.47;;;5.25;100.00
56292;BME280;54008;53.606;9.462;2022-11-12T05:14:56;103384.19;;;5.38;100.00
56292;BME280;54008;53.606;9.462;2022-11-12T05:17:21;103374.59;;;5.24;100.00
56292;BME280;54008;53.606;9.462;2022-11-12T05:19:46;103369.84;;;5.16;100.00
56292;BME280;54008;53.606;9.462;2022-11-12T05:22:11;103385.31;;;5.16;100.00
56292;BME280;54008;53.606;9.462;2022-11-12T05:24:39;103389.19;;;5.23;100.00
56292;BME280;54008;53.606;9.462;2022-11-12T05:27:08;103390.91;;;5.24;100.00
56292;BME280;54008;53.606;9.462;2022-11-12T05:29:34;103393.47;;;5.25;100.00
56292;BME280;54008;53.606;9.462;2022-11-12T05:32:00;103371.69;;;5.16;100.00
56292;BME280;54008;53.606;9.462;2022-11-12T05:34:25;103366.53;;;5.13;100.00
56292;BME280;54008;53.606;9.462;2022-11-12T05:36:50;103367.50;;;5.11;100.00
56292;BME280;54008;53.606;9.462;2022-11-12T05:39:16;103390.00;;;5.14;100.00
56292;BME280;54008;53.606;9.462;2022-11-12T05:41:41;103395.47;;;5.14;100.00
56292;BME280;54008;53.606;9.462;2022-11-12T05:44:06;103387.44;;;5.12;100.00
56292;BME280;54008;53.606;9.462;2022-11-12T05:46:32;103382.69;;;5.04;100.00
56292;BME280;54008;53.606;9.462;2022-11-12T05:48:57;103382.22;;;4.99;100.00
56292;BME280;54008;53.606;9.462;2022-11-12T05:51:22;103390.41;;;4.99;100.00
56292;BME280;54008;53.606;9.462;2022-11-12T05:53:47;103404.25;;;4.96;100.00
56292;BME280;54008;53.606;9.462;2022-11-12T05:56:13;103402.53;;;4.95;100.00
56292;BME280;54008;53.606;9.462;2022-11-12T05:58:38;103397.94;;;4.86;100.00
56292;BME280;54008;53.606;9.462;2022-11-12T06:01:03;103398.66;;;4.88;100.00
56292;BME280;54008;53.606;9.462;2022-11-12T06:03:29;103404.25;;;4.96;100.00
56292;BME280;54008;53.606;9.462;2022-11-12T06:05:54;103396.41;;;4.93;100.00
56292;BME280;54008;53.606;9.462;2022-11-12T06:08:20;103393.19;;;4.78;100.00
56292;BME280;54008;53.606;9.462;2022-11-12T06:10:50;103402.47;;;4.76;100.00
56292;BME280;54008;53.606;9.462;2022-11-12T06:13:15;103404.50;;;4.83;100.00
56292;BME280;54008;53.606;9.462;2022-11-12T06:15:41;103407.66;;;4.79;100.00
56292;BME280;54008;53.606;9.462;2022-11-12T06:18:07;103402.88;;;4.71;100.00
56292;BME280;54008;53.606;9.462;2022-11-12T06:20:33;103397.81;;;4.67;100.00
56292;BME280;54008;53.606;9.462;2022-11-12T06:22:59;103406.53;;;4.60;100.00
56292;BME280;54008;53.606;9.462;2022-11-12T06:25:24;103414.22;;;4.55;100.00
56292;BME280;54008;53.606;9.462;2022-11-12T06:27:49;103426.69;;;4.58;100.00
56292;BME280;54008;53.606;9.462;2022-11-12T06:30:15;103422.13;;;4.58;100.00
56292;BME280;54008;53.606;9.462;2022-11-12T06:32:40;103417.22;;;4.52;100.00
56292;BME280;54008;53.606;9.462;2022-11-12T06:35:06;103415.19;;;4.45;100.00
56292;BME280;54008;53.606;9.462;2022-11-12T06:37:31;103420.06;;;4.51;100.00
56292;BME280;54008;53.606;9.462;2022-11-12T06:39:56;103410.47;;;4.47;100.00
56292;BME280;54008;53.606;9.462;2022-11-12T06:42:22;103406.44;;;4.41;100.00
56292;BME280;54008;53.606;9.462;2022-11-12T06:44:47;103419.22;;;4.50;100.00
56292;BME280;54008;53.606;9.462;2022-11-12T06:47:13;103410.34;;;4.48;100.00
56292;BME280;54008;53.606;9.462;2022-11-12T06:49:38;103410.59;;;4.45;100.00
56292;BME280;54008;53.606;9.462;2022-11-12T06:52:03;103412.13;;;4.38;100.00
56292;BME280;54008;53.606;9.462;2022-11-12T06:54:29;103417.69;;;4.36;100.00
56292;BME280;54008;53.606;9.462;2022-11-12T06:56:54;103414.66;;;4.30;100.00
56292;BME280;54008;53.606;9.462;2022-11-12T06:59:19;103411.94;;;4.30;100.00
56292;BME280;54008;53.606;9.462;2022-11-12T07:01:44;103414.44;;;4.22;100.00
56292;BME280;54008;53.606;9.462;2022-11-12T07:04:10;103419.59;;;4.25;100.00
56292;BME280;54008;53.606;9.462;2022-11-12T07:06:35;103422.06;;;4.28;100.00
56292;BME280;54008;53.606;9.462;2022-11-12T07:09:02;103423.31;;;4.24;100.00
56292;BME280;54008;53.606;9.462;2022-11-12T07:11:27;103422.13;;;4.17;100.00
56292;BME280;54008;53.606;9.462;2022-11-12T07:14:05;103431.34;;;4.25;100.00
56292;BME280;54008;53.606;9.462;2022-11-12T07:16:31;103429.69;;;4.34;100.00
56292;BME280;54008;53.606;9.462;2022-11-12T07:18:57;103426.50;;;4.29;100.00
56292;BME280;54008;53.606;9.462;2022-11-12T07:21:22;103424.00;;;4.37;100.00
56292;BME280;54008;53.606;9.462;2022-11-12T07:23:48;103421.81;;;4.31;100.00
56292;BME280;54008;53.606;9.462;2022-11-12T07:26:22;103426.84;;;4.35;100.00
56292;BME280;54008;53.606;9.462;2022-11-12T07:28:49;103430.66;;;4.33;100.00
56292;BME280;54008;53.606;9.462;2022-11-12T07:31:16;103421.41;;;4.35;100.00
56292;BME280;54008;53.606;9.462;2022-11-12T07:33:42;103422.16;;;4.37;100.00
56292;BME280;54008;53.606;9.462;2022-11-12T07:36:16;103431.59;;;4.43;100.00
56292;BME280;54008;53.606;9.462;2022-11-12T07:38:45;103438.50;;;4.47;100.00
56292;BME280;54008;53.606;9.462;2022-11-12T07:43:36;103432.09;;;4.48;100.00
56292;BME280;54008;53.606;9.462;2022-11-12T07:46:04;103443.94;;;4.47;100.00
56292;BME280;54008;53.606;9.462;2022-11-12T07:48:30;103431.09;;;4.49;100.00
56292;BME280;54008;53.606;9.462;2022-11-12T07:53:29;103449.03;;;4.61;100.00
56292;BME280;54008;53.606;9.462;2022-11-12T07:55:57;103448.78;;;4.65;100.00
56292;BME280;54008;53.606;9.462;2022-11-12T07:58:23;103441.88;;;4.60;100.00
56292;BME280;54008;53.606;9.462;2022-11-12T08:00:49;103446.91;;;4.65;100.00
56292;BME280;54008;53.606;9.462;2022-11-12T08:03:15;103437.03;;;4.64;100.00
56292;BME280;54008;53.606;9.462;2022-11-12T08:05:40;103442.94;;;4.69;100.00
56292;BME280;54008;53.606;9.462;2022-11-12T08:08:06;103447.44;;;4.80;100.00
56292;BME280;54008;53.606;9.462;2022-11-12T08:10:31;103454.06;;;4.87;100.00
56292;BME280;54008;53.606;9.462;2022-11-12T08:12:56;103457.81;;;4.96;100.00
56292;BME280;54008;53.606;9.462;2022-11-12T08:15:22;103465.44;;;5.02;100.00
56292;BME280;54008;53.606;9.462;2022-11-12T08:17:47;103461.59;;;5.04;100.00
56292;BME280;54008;53.606;9.462;2022-11-12T08:20:12;103452.44;;;5.15;100.00
56292;BME280;54008;53.606;9.462;2022-11-12T08:22:38;103455.75;;;5.19;100.00
56292;BME280;54008;53.606;9.462;2022-11-12T08:25:03;103459.97;;;5.23;100.00
56292;BME280;54008;53.606;9.462;2022-11-12T08:27:29;103454.69;;;5.31;100.00
56292;BME280;54008;53.606;9.462;2022-11-12T08:29:54;103453.41;;;5.45;100.00
56292;BME280;54008;53.606;9.462;2022-11-12T08:32:19;103465.63;;;5.50;100.00
56292;BME280;54008;53.606;9.462;2022-11-12T08:34:45;103467.06;;;5.54;100.00
56292;BME280;54008;53.606;9.462;2022-11-12T08:37:10;103467.81;;;5.66;100.00
56292;BME280;54008;53.606;9.462;2022-11-12T08:39:37;103454.34;;;5.65;100.00
56292;BME280;54008;53.606;9.462;2022-11-12T08:42:03;103460.97;;;5.72;100.00
56292;BME280;54008;53.606;9.462;2022-11-12T08:44:28;103467.25;;;5.82;100.00
56292;BME280;54008;53.606;9.462;2022-11-12T08:46:54;103475.72;;;5.89;100.00
56292;BME280;54008;53.606;9.462;2022-11-12T08:49:19;103471.47;;;5.96;100.00
56292;BME280;54008;53.606;9.462;2022-11-12T08:51:44;103478.63;;;5.97;100.00
56292;BME280;54008;53.606;9.462;2022-11-12T08:54:10;103492.72;;;6.02;100.00
56292;BME280;54008;53.606;9.462;2022-11-12T08:56:35;103493.41;;;6.04;100.00
56292;BME280;54008;53.606;9.462;2022-11-12T08:59:00;103489.97;;;6.12;100.00
56292;BME280;54008;53.606;9.462;2022-11-12T09:01:26;103493.75;;;6.20;100.00
56292;BME280;54008;53.606;9.462;2022-11-12T09:03:51;103514.09;;;6.26;100.00
56292;BME280;54008;53.606;9.462;2022-11-12T09:06:17;103512.09;;;6.28;100.00
56292;BME280;54008;53.606;9.462;2022-11-12T09:08:42;103511.50;;;6.34;100.00
56292;BME280;54008;53.606;9.462;2022-11-12T09:11:07;103505.22;;;6.43;100.00
56292;BME280;54008;53.606;9.462;2022-11-12T09:13:33;103504.31;;;6.52;100.00
56292;BME280;54008;53.606;9.462;2022-11-12T09:16:06;103520.81;;;6.61;100.00
56292;BME280;54008;53.606;9.462;2022-11-12T09:18:33;103516.22;;;6.71;100.00
56292;BME280;54008;53.606;9.462;2022-11-12T09:21:16;103514.63;;;6.78;100.00
56292;BME280;54008;53.606;9.462;2022-11-12T09:23:43;103519.53;;;6.84;100.00
56292;BME280;54008;53.606;9.462;2022-11-12T09:26:08;103524.94;;;6.94;100.00
56292;BME280;54008;53.606;9.462;2022-11-12T09:28:34;103531.09;;;7.05;100.00
56292;BME280;54008;53.606;9.462;2022-11-12T09:31:00;103529.09;;;7.08;100.00
56292;BME280;54008;53.606;9.462;2022-11-12T09:33:29;103535.78;;;7.23;100.00
56292;BME280;54008;53.606;9.462;2022-11-12T09:35:55;103526.84;;;7.31;100.00
56292;BME280;54008;53.606;9.462;2022-11-12T09:38:21;103534.44;;;7.37;100.00
56292;BME280;54008;53.606;9.462;2022-11-12T09:43:28;103543.47;;;7.47;100.00
56292;BME280;54008;53.606;9.462;2022-11-12T09:45:56;103541.72;;;7.56;100.00
56292;BME280;54008;53.606;9.462;2022-11-12T09:48:34;103546.25;;;7.65;100.00
56292;BME280;54008;53.606;9.462;2022-11-12T09:51:10;103547.78;;;7.77;100.00
56292;BME280;54008;53.606;9.462;2022-11-12T09:53:45;103549.59;;;7.86;100.00
56292;BME280;54008;53.606;9.462;2022-11-12T09:56:12;103552.41;;;7.94;100.00
56292;BME280;54008;53.606;9.462;2022-11-12T09:58:38;103549.84;;;7.93;100.00
56292;BME280;54008;53.606;9.462;2022-11-12T10:01:13;103559.16;;;8.00;100.00
56292;BME280;54008;53.606;9.462;2022-11-12T10:04:15;103568.59;;;8.06;100.00
56292;BME280;54008;53.606;9.462;2022-11-12T10:06:47;103570.75;;;8.12;100.00
56292;BME280;54008;53.606;9.462;2022-11-12T10:09:20;103579.63;;;8.14;100.00
56292;BME280;54008;53.606;9.462;2022-11-12T10:18:17;103577.44;;;8.45;100.00
56292;BME280;54008;53.606;9.462;2022-11-12T10:20:57;103578.38;;;8.54;100.00
56292;BME280;54008;53.606;9.462;2022-11-12T10:23:27;103589.31;;;8.54;100.00
56292;BME280;54008;53.606;9.462;2022-11-12T10:25:57;103599.66;;;8.60;100.00
56292;BME280;54008;53.606;9.462;2022-11-12T10:28:32;103604.81;;;8.63;100.00
56292;BME280;54008;53.606;9.462;2022-11-12T10:31:01;103601.13;;;8.72;100.00
56292;BME280;54008;53.606;9.462;2022-11-12T10:33:31;103605.66;;;8.81;100.00
56292;BME280;54008;53.606;9.462;2022-11-12T10:36:12;103605.81;;;8.80;100.00
56292;BME280;54008;53.606;9.462;2022-11-12T10:38:42;103610.50;;;8.87;100.00
56292;BME280;54008;53.606;9.462;2022-11-12T10:41:21;103606.13;;;8.94;100.00
56292;BME280;54008;53.606;9.462;2022-11-12T10:43:56;103599.16;;;9.00;100.00
56292;BME280;54008;53.606;9.462;2022-11-12T10:46:25;103608.59;;;9.06;100.00
56292;BME280;54008;53.606;9.462;2022-11-12T10:49:20;103614.81;;;9.08;100.00
56292;BME280;54008;53.606;9.462;2022-11-12T10:51:57;103626.44;;;9.10;100.00
56292;BME280;54008;53.606;9.462;2022-11-12T10:56:51;103602.06;;;9.25;100.00
56292;BME280;54008;53.606;9.462;2022-11-12T10:59:21;103613.19;;;9.23;100.00
56292;BME280;54008;53.606;9.462;2022-11-12T11:01:58;103631.16;;;9.26;100.00
56292;BME280;54008;53.606;9.462;2022-11-12T11:04:33;103628.44;;;9.26;100.00
56292;BME280;54008;53.606;9.462;2022-11-12T11:07:06;103618.19;;;9.28;100.00
56292;BME280;54008;53.606;9.462;2022-11-12T11:09:32;103617.81;;;9.22;100.00
56292;BME280;54008;53.606;9.462;2022-11-12T11:11:58;103614.13;;;9.14;100.00
56292;BME280;54008;53.606;9.462;2022-11-12T11:16:53;103613.66;;;9.18;100.00
56292;BME280;54008;53.606;9.462;2022-11-12T11:19:19;103600.63;;;9.12;100.00
56292;BME280;54008;53.606;9.462;2022-11-12T11:27:29;103599.91;;;9.36;100.00
56292;BME280;54008;53.606;9.462;2022-11-12T11:35:51;103638.44;;;9.61;100.00
56292;BME280;54008;53.606;9.462;2022-11-12T11:38:34;103642.25;;;9.68;100.00
56292;BME280;54008;53.606;9.462;2022-11-12T11:41:13;103641.22;;;9.69;100.00
56292;BME280;54008;53.606;9.462;2022-11-12T11:50:07;103667.88;;;9.85;100.00
56292;BME280;54008;53.606;9.462;2022-11-12T11:52:54;103660.34;;;9.87;100.00
56292;BME280;54008;53.606;9.462;2022-11-12T11:58:54;103642.03;;;9.87;100.00
56292;BME280;54008;53.606;9.462;2022-11-12T12:01:47;103639.91;;;9.81;100.00
56292;BME280;54008;53.606;9.462;2022-11-12T12:07:11;103620.75;;;9.89;100.00
56292;BME280;54008;53.606;9.462;2022-11-12T12:10:04;103614.25;;;9.82;100.00
56292;BME280;54008;53.606;9.462;2022-11-12T12:12:59;103617.31;;;9.79;100.00
56292;BME280;54008;53.606;9.462;2022-11-12T12:18:24;103607.31;;;9.70;100.00
56292;BME280;54008;53.606;9.462;2022-11-12T12:23:49;103610.00;;;9.62;100.00
56292;BME280;54008;53.606;9.462;2022-11-12T12:26:39;103588.09;;;9.62;100.00
56292;BME280;54008;53.606;9.462;2022-11-12T12:29:06;103584.66;;;9.60;100.00
56292;BME280;54008;53.606;9.462;2022-11-12T12:31:38;103582.91;;;9.59;100.00
56292;BME280;54008;53.606;9.462;2022-11-12T12:34:17;103575.56;;;9.59;100.00
56292;BME280;54008;53.606;9.462;2022-11-12T12:36:46;103564.44;;;9.61;100.00
56292;BME280;54008;53.606;9.462;2022-11-12T12:39:18;103559.50;;;9.64;100.00
56292;BME280;54008;53.606;9.462;2022-11-12T12:41:59;103559.16;;;9.67;100.00
56292;BME280;54008;53.606;9.462;2022-11-12T12:44:29;103548.75;;;9.71;100.00
56292;BME280;54008;53.606;9.462;2022-11-12T12:47:17;103551.13;;;9.74;100.00
56292;BME280;54008;53.606;9.462;2022-11-12T12:49:44;103551.50;;;9.79;100.00
56292;BME280;54008;53.606;9.462;2022-11-12T12:52:12;103553.03;;;9.82;100.00
56292;BME280;54008;53.606;9.462;2022-11-12T13:00:23;103546.06;;;9.95;100.00
56292;BME280;54008;53.606;9.462;2022-11-12T13:02:49;103543.19;;;9.97;100.00
56292;BME280;54008;53.606;9.462;2022-11-12T13:05:44;103547.13;;;10.03;100.00
56292;BME280;54008;53.606;9.462;2022-11-12T13:08:12;103539.41;;;9.98;100.00
56292;BME280;54008;53.606;9.462;2022-11-12T13:15:47;103533.22;;;10.04;100.00
56292;BME280;54008;53.606;9.462;2022-11-12T13:21:17;103548.81;;;10.04;100.00
56292;BME280;54008;53.606;9.462;2022-11-12T13:23:47;103551.56;;;10.04;100.00
56292;BME280;54008;53.606;9.462;2022-11-12T13:26:51;103550.56;;;10.05;100.00
56292;BME280;54008;53.606;9.462;2022-11-12T13:37:42;103533.22;;;10.04;100.00
56292;BME280;54008;53.606;9.462;2022-11-12T13:40:12;103537.53;;;10.07;100.00
56292;BME280;54008;53.606;9.462;2022-11-12T13:42:37;103547.00;;;10.12;100.00
56292;BME280;54008;53.606;9.462;2022-11-12T13:45:12;103532.56;;;10.10;100.00
56292;BME280;54008;53.606;9.462;2022-11-12T13:47:38;103520.75;;;10.10;100.00
56292;BME280;54008;53.606;9.462;2022-11-12T13:50:07;103520.75;;;10.10;100.00
56292;BME280;54008;53.606;9.462;2022-11-12T13:52:34;103514.41;;;10.09;100.00
56292;BME280;54008;53.606;9.462;2022-11-12T13:55:03;103510.81;;;10.09;100.00
56292;BME280;54008;53.606;9.462;2022-11-12T13:57:30;103514.22;;;10.11;100.00
56292;BME280;54008;53.606;9.462;2022-11-12T14:00:19;103510.63;;;10.10;100.00
56292;BME280;54008;53.606;9.462;2022-11-12T14:02:57;103507.69;;;10.12;100.00
56292;BME280;54008;53.606;9.462;2022-11-12T14:05:26;103519.03;;;10.17;100.00
56292;BME280;54008;53.606;9.462;2022-11-12T14:16:09;103520.59;;;10.19;100.00
56292;BME280;54008;53.606;9.462;2022-11-12T14:19:07;103519.72;;;10.19;100.00
56292;BME280;54008;53.606;9.462;2022-11-12T14:21:36;103518.34;;;10.15;100.00
56292;BME280;54008;53.606;9.462;2022-11-12T14:24:03;103515.25;;;10.10;100.00